sensor_id;sensor_type;location;lat;lon;timestamp;temperature;humidity
75769;DHT22;64379;48.888;8.330;2022-11-20T00:00:55;6.80;81.90
75769;DHT22;64379;48.888;8.330;2022-11-20T00:03:21;6.90;81.90
75769;DHT22;64379;48.888;8.330;2022-11-20T00:05:47;7.00;81.60
75769;DHT22;64379;48.888;8.330;2022-11-20T00:08:13;7.20;81.40
75769;DHT22;64379;48.888;8.330;2022-11-20T00:10:39;7.40;80.60
75769;DHT22;64379;48.888;8.330;2022-11-20T00:13:06;7.30;80.30
75769;DHT22;64379;48.888;8.330;2022-11-20T00:15:32;7.40;80.10
75769;DHT22;64379;48.888;8.330;2022-11-20T00:17:57;7.50;79.70
75769;DHT22;64379;48.888;8.330;2022-11-20T00:20:23;7.40;79.80
75769;DHT22;64379;48.888;8.330;2022-11-20T00:22:49;7.50;79.50
75769;DHT22;64379;48.888;8.330;2022-11-20T00:25:15;7.40;79.50
75769;DHT22;64379;48.888;8.330;2022-11-20T00:27:40;7.50;79.80
75769;DHT22;64379;48.888;8.330;2022-11-20T00:30:07;7.60;78.70
75769;DHT22;64379;48.888;8.330;2022-11-20T00:32:32;7.50;79.20
75769;DHT22;64379;48.888;8.330;2022-11-20T00:34:58;7.40;79.40
75769;DHT22;64379;48.888;8.330;2022-11-20T00:37:24;7.40;79.70
75769;DHT22;64379;48.888;8.330;2022-11-20T00:39:49;7.40;79.60
75769;DHT22;64379;48.888;8.330;2022-11-20T00:42:15;7.50;79.70
75769;DHT22;64379;48.888;8.330;2022-11-20T00:44:40;7.40;79.70
75769;DHT22;64379;48.888;8.330;2022-11-20T00:47:06;7.50;79.60
75769;DHT22;64379;48.888;8.330;2022-11-20T00:49:31;7.50;79.70
75769;DHT22;64379;48.888;8.330;2022-11-20T00:51:57;7.50;79.50
75769;DHT22;64379;48.888;8.330;2022-11-20T00:54:23;7.50;79.60
75769;DHT22;64379;48.888;8.330;2022-11-20T00:56:49;7.50;79.30
75769;DHT22;64379;48.888;8.330;2022-11-20T00:59:14;7.50;79.20
75769;DHT22;64379;48.888;8.330;2022-11-20T01:01:40;7.60;79.10
75769;DHT22;64379;48.888;8.330;2022-11-20T01:04:05;7.60;79.20
75769;DHT22;64379;48.888;8.330;2022-11-20T01:06:36;7.60;79.10
75769;DHT22;64379;48.888;8.330;2022-11-20T01:09:09;7.60;78.60
75769;DHT22;64379;48.888;8.330;2022-11-20T01:11:38;7.50;79.00
75769;DHT22;64379;48.888;8.330;2022-11-20T01:14:06;7.60;78.60
75769;DHT22;64379;48.888;8.330;2022-11-20T01:16:35;7.50;79.10
75769;DHT22;64379;48.888;8.330;2022-11-20T01:19:03;7.60;78.90
75769;DHT22;64379;48.888;8.330;2022-11-20T01:21:32;7.50;78.70
75769;DHT22;64379;48.888;8.330;2022-11-20T01:23:58;7.60;78.60
75769;DHT22;64379;48.888;8.330;2022-11-20T01:26:26;7.60;78.70
75769;DHT22;64379;48.888;8.330;2022-11-20T01:28:53;7.50;78.50
75769;DHT22;64379;48.888;8.330;2022-11-20T01:31:24;7.50;78.60
75769;DHT22;64379;48.888;8.330;2022-11-20T01:33:52;7.60;78.40
75769;DHT22;64379;48.888;8.330;2022-11-20T01:36:20;7.70;77.60
75769;DHT22;64379;48.888;8.330;2022-11-20T01:38:46;7.80;77.40
75769;DHT22;64379;48.888;8.330;2022-11-20T01:41:13;7.80;77.80
75769;DHT22;64379;48.888;8.330;2022-11-20T01:43:59;8.00;76.70
75769;DHT22;64379;48.888;8.330;2022-11-20T01:46:25;7.80;76.80
75769;DHT22;64379;48.888;8.330;2022-11-20T01:49:00;7.80;76.90
75769;DHT22;64379;48.888;8.330;2022-11-20T01:51:33;7.60;77.60
75769;DHT22;64379;48.888;8.330;2022-11-20T01:54:05;7.60;76.90
75769;DHT22;64379;48.888;8.330;2022-11-20T01:56:34;7.60;76.70
75769;DHT22;64379;48.888;8.330;2022-11-20T01:59:02;7.50;76.90
75769;DHT22;64379;48.888;8.330;2022-11-20T02:01:29;7.60;76.40
75769;DHT22;64379;48.888;8.330;2022-11-20T02:03:56;7.50;76.60
75769;DHT22;64379;48.888;8.330;2022-11-20T02:06:29;7.50;76.40
75769;DHT22;64379;48.888;8.330;2022-11-20T02:08:58;7.60;76.00
75769;DHT22;64379;48.888;8.330;2022-11-20T02:11:24;7.50;75.80
75769;DHT22;64379;48.888;8.330;2022-11-20T02:13:49;7.50;75.60
75769;DHT22;64379;48.888;8.330;2022-11-20T02:18:50;7.50;75.50
75769;DHT22;64379;48.888;8.330;2022-11-20T02:26:59;7.60;75.30
75769;DHT22;64379;48.888;8.330;2022-11-20T02:29:28;7.60;75.60
75769;DHT22;64379;48.888;8.330;2022-11-20T02:31:55;7.80;75.50
75769;DHT22;64379;48.888;8.330;2022-11-20T02:34:21;7.80;75.40
75769;DHT22;64379;48.888;8.330;2022-11-20T02:36:48;7.70;74.70
75769;DHT22;64379;48.888;8.330;2022-11-20T02:39:15;7.60;75.40
75769;DHT22;64379;48.888;8.330;2022-11-20T02:41:42;7.60;75.30
75769;DHT22;64379;48.888;8.330;2022-11-20T02:44:08;7.60;75.10
75769;DHT22;64379;48.888;8.330;2022-11-20T02:46:34;7.70;75.30
75769;DHT22;64379;48.888;8.330;2022-11-20T02:49:02;7.80;75.20
75769;DHT22;64379;48.888;8.330;2022-11-20T02:51:28;7.80;75.00
75769;DHT22;64379;48.888;8.330;2022-11-20T02:53:53;7.50;75.20
75769;DHT22;64379;48.888;8.330;2022-11-20T02:56:19;7.60;75.30
75769;DHT22;64379;48.888;8.330;2022-11-20T02:58:47;7.50;75.20
75769;DHT22;64379;48.888;8.330;2022-11-20T03:01:13;7.60;75.10
75769;DHT22;64379;48.888;8.330;2022-11-20T03:03:38;7.60;75.60
75769;DHT22;64379;48.888;8.330;2022-11-20T03:06:04;7.60;75.10
75769;DHT22;64379;48.888;8.330;2022-11-20T03:08:30;7.60;75.80
75769;DHT22;64379;48.888;8.330;2022-11-20T03:10:55;7.60;75.20
75769;DHT22;64379;48.888;8.330;2022-11-20T03:13:21;7.50;75.80
75769;DHT22;64379;48.888;8.330;2022-11-20T03:15:47;7.50;75.40
75769;DHT22;64379;48.888;8.330;2022-11-20T03:18:12;7.50;75.60
75769;DHT22;64379;48.888;8.330;2022-11-20T03:20:39;7.50;75.40
75769;DHT22;64379;48.888;8.330;2022-11-20T03:23:05;7.50;75.80
75769;DHT22;64379;48.888;8.330;2022-11-20T03:25:30;7.50;75.80
75769;DHT22;64379;48.888;8.330;2022-11-20T03:27:56;7.50;75.60
75769;DHT22;64379;48.888;8.330;2022-11-20T03:30:21;7.50;75.70
75769;DHT22;64379;48.888;8.330;2022-11-20T03:32:47;7.50;75.40
75769;DHT22;64379;48.888;8.330;2022-11-20T03:35:13;7.40;75.80
75769;DHT22;64379;48.888;8.330;2022-11-20T03:37:38;7.40;76.20
75769;DHT22;64379;48.888;8.330;2022-11-20T03:40:05;7.50;75.60
75769;DHT22;64379;48.888;8.330;2022-11-20T03:42:30;7.50;75.80
75769;DHT22;64379;48.888;8.330;2022-11-20T03:45:12;7.50;75.60
75769;DHT22;64379;48.888;8.330;2022-11-20T03:47:38;7.50;75.40
75769;DHT22;64379;48.888;8.330;2022-11-20T03:50:05;7.60;75.30
75769;DHT22;64379;48.888;8.330;2022-11-20T03:52:30;7.50;74.90
75769;DHT22;64379;48.888;8.330;2022-11-20T03:54:56;7.50;75.10
75769;DHT22;64379;48.888;8.330;2022-11-20T03:57:21;7.60;75.50
75769;DHT22;64379;48.888;8.330;2022-11-20T03:59:47;7.60;75.30
75769;DHT22;64379;48.888;8.330;2022-11-20T04:02:12;7.50;75.60
75769;DHT22;64379;48.888;8.330;2022-11-20T04:04:38;7.60;75.20
75769;DHT22;64379;48.888;8.330;2022-11-20T04:07:04;7.50;75.80
75769;DHT22;64379;48.888;8.330;2022-11-20T04:09:29;7.40;75.50
75769;DHT22;64379;48.888;8.330;2022-11-20T04:11:55;7.40;75.90
75769;DHT22;64379;48.888;8.330;2022-11-20T04:14:20;7.50;75.60
75769;DHT22;64379;48.888;8.330;2022-11-20T04:16:46;7.50;75.60
75769;DHT22;64379;48.888;8.330;2022-11-20T04:19:15;7.40;76.10
75769;DHT22;64379;48.888;8.330;2022-11-20T04:21:43;7.50;76.00
75769;DHT22;64379;48.888;8.330;2022-11-20T04:24:08;7.50;75.80
75769;DHT22;64379;48.888;8.330;2022-11-20T04:26:36;7.40;76.00
75769;DHT22;64379;48.888;8.330;2022-11-20T04:29:02;7.40;76.20
75769;DHT22;64379;48.888;8.330;2022-11-20T04:31:30;7.40;75.90
75769;DHT22;64379;48.888;8.330;2022-11-20T04:34:06;7.40;75.90
75769;DHT22;64379;48.888;8.330;2022-11-20T04:36:33;7.40;76.20
75769;DHT22;64379;48.888;8.330;2022-11-20T04:39:00;7.50;76.00
75769;DHT22;64379;48.888;8.330;2022-11-20T04:41:28;7.50;75.80
75769;DHT22;64379;48.888;8.330;2022-11-20T04:43:57;7.50;75.60
75769;DHT22;64379;48.888;8.330;2022-11-20T04:46:25;7.40;76.20
75769;DHT22;64379;48.888;8.330;2022-11-20T04:48:51;7.40;76.10
75769;DHT22;64379;48.888;8.330;2022-11-20T04:51:17;7.50;75.40
75769;DHT22;64379;48.888;8.330;2022-11-20T04:53:43;7.50;75.00
75769;DHT22;64379;48.888;8.330;2022-11-20T04:56:10;7.50;75.10
75769;DHT22;64379;48.888;8.330;2022-11-20T04:58:37;7.70;74.40
75769;DHT22;64379;48.888;8.330;2022-11-20T05:01:12;7.60;74.50
75769;DHT22;64379;48.888;8.330;2022-11-20T05:03:43;7.50;74.40
75769;DHT22;64379;48.888;8.330;2022-11-20T05:06:16;7.60;74.60
75769;DHT22;64379;48.888;8.330;2022-11-20T05:08:42;7.60;73.90
75769;DHT22;64379;48.888;8.330;2022-11-20T05:11:13;7.50;74.10
75769;DHT22;64379;48.888;8.330;2022-11-20T05:13:39;7.60;73.90
75769;DHT22;64379;48.888;8.330;2022-11-20T05:16:10;7.50;74.00
75769;DHT22;64379;48.888;8.330;2022-11-20T05:18:38;7.50;74.60
75769;DHT22;64379;48.888;8.330;2022-11-20T05:21:05;7.50;74.50
75769;DHT22;64379;48.888;8.330;2022-11-20T05:23:31;7.50;74.20
75769;DHT22;64379;48.888;8.330;2022-11-20T05:25:57;7.50;74.40
75769;DHT22;64379;48.888;8.330;2022-11-20T05:28:23;7.50;74.20
75769;DHT22;64379;48.888;8.330;2022-11-20T05:30:50;7.50;74.30
75769;DHT22;64379;48.888;8.330;2022-11-20T05:33:15;7.50;74.20
75769;DHT22;64379;48.888;8.330;2022-11-20T05:35:41;7.60;74.00
75769;DHT22;64379;48.888;8.330;2022-11-20T05:38:07;7.60;73.40
75769;DHT22;64379;48.888;8.330;2022-11-20T05:40:32;7.50;73.90
75769;DHT22;64379;48.888;8.330;2022-11-20T05:42:58;7.50;73.70
75769;DHT22;64379;48.888;8.330;2022-11-20T05:45:23;7.60;73.70
75769;DHT22;64379;48.888;8.330;2022-11-20T05:47:49;7.60;73.20
75769;DHT22;64379;48.888;8.330;2022-11-20T05:50:15;7.50;73.70
75769;DHT22;64379;48.888;8.330;2022-11-20T05:52:40;7.50;73.60
75769;DHT22;64379;48.888;8.330;2022-11-20T05:55:06;7.60;73.50
75769;DHT22;64379;48.888;8.330;2022-11-20T05:57:32;7.50;73.30
75769;DHT22;64379;48.888;8.330;2022-11-20T05:59:58;7.50;73.00
75769;DHT22;64379;48.888;8.330;2022-11-20T06:02:24;7.50;73.10
75769;DHT22;64379;48.888;8.330;2022-11-20T06:04:49;7.60;72.90
75769;DHT22;64379;48.888;8.330;2022-11-20T06:07:17;7.60;72.70
75769;DHT22;64379;48.888;8.330;2022-11-20T06:09:43;7.60;72.70
75769;DHT22;64379;48.888;8.330;2022-11-20T06:12:08;7.60;72.90
75769;DHT22;64379;48.888;8.330;2022-11-20T06:14:34;7.60;72.30
75769;DHT22;64379;48.888;8.330;2022-11-20T06:16:59;7.50;72.60
75769;DHT22;64379;48.888;8.330;2022-11-20T06:19:25;7.60;72.70
75769;DHT22;64379;48.888;8.330;2022-11-20T06:21:51;7.50;73.20
75769;DHT22;64379;48.888;8.330;2022-11-20T06:24:17;7.60;73.30
75769;DHT22;64379;48.888;8.330;2022-11-20T06:26:43;7.50;73.70
75769;DHT22;64379;48.888;8.330;2022-11-20T06:29:08;7.50;74.70
75769;DHT22;64379;48.888;8.330;2022-11-20T06:31:34;7.40;75.70
75769;DHT22;64379;48.888;8.330;2022-11-20T06:34:03;7.20;76.80
75769;DHT22;64379;48.888;8.330;2022-11-20T06:36:29;7.10;77.60
75769;DHT22;64379;48.888;8.330;2022-11-20T06:38:54;7.00;77.90
75769;DHT22;64379;48.888;8.330;2022-11-20T06:41:22;7.00;78.00
75769;DHT22;64379;48.888;8.330;2022-11-20T06:43:48;7.10;77.70
75769;DHT22;64379;48.888;8.330;2022-11-20T06:46:15;7.10;77.90
75769;DHT22;64379;48.888;8.330;2022-11-20T06:48:44;7.00;77.80
75769;DHT22;64379;48.888;8.330;2022-11-20T06:51:10;7.00;77.90
75769;DHT22;64379;48.888;8.330;2022-11-20T06:53:37;7.00;77.90
75769;DHT22;64379;48.888;8.330;2022-11-20T06:56:06;7.10;77.90
75769;DHT22;64379;48.888;8.330;2022-11-20T06:58:33;6.90;79.90
75769;DHT22;64379;48.888;8.330;2022-11-20T07:01:00;6.90;80.10
75769;DHT22;64379;48.888;8.330;2022-11-20T07:03:27;7.00;79.50
75769;DHT22;64379;48.888;8.330;2022-11-20T07:05:55;7.00;79.30
75769;DHT22;64379;48.888;8.330;2022-11-20T07:08:21;7.00;79.50
75769;DHT22;64379;48.888;8.330;2022-11-20T07:10:47;7.00;79.20
75769;DHT22;64379;48.888;8.330;2022-11-20T07:13:12;7.00;79.10
75769;DHT22;64379;48.888;8.330;2022-11-20T07:15:39;7.20;78.80
75769;DHT22;64379;48.888;8.330;2022-11-20T07:18:04;7.20;79.20
75769;DHT22;64379;48.888;8.330;2022-11-20T07:20:30;7.20;78.40
75769;DHT22;64379;48.888;8.330;2022-11-20T07:22:56;7.20;78.30
75769;DHT22;64379;48.888;8.330;2022-11-20T07:25:22;7.20;78.40
75769;DHT22;64379;48.888;8.330;2022-11-20T07:27:48;7.40;77.80
75769;DHT22;64379;48.888;8.330;2022-11-20T07:30:17;7.30;77.60
75769;DHT22;64379;48.888;8.330;2022-11-20T07:32:46;7.30;77.60
75769;DHT22;64379;48.888;8.330;2022-11-20T07:35:13;7.30;77.60
75769;DHT22;64379;48.888;8.330;2022-11-20T07:37:38;7.40;77.60
75769;DHT22;64379;48.888;8.330;2022-11-20T07:40:04;7.40;77.90
75769;DHT22;64379;48.888;8.330;2022-11-20T07:42:30;7.40;77.80
75769;DHT22;64379;48.888;8.330;2022-11-20T07:44:55;7.20;78.20
75769;DHT22;64379;48.888;8.330;2022-11-20T07:47:21;7.20;78.20
75769;DHT22;64379;48.888;8.330;2022-11-20T07:49:47;7.40;78.20
75769;DHT22;64379;48.888;8.330;2022-11-20T07:52:12;7.40;77.50
75769;DHT22;64379;48.888;8.330;2022-11-20T07:54:38;7.30;78.30
75769;DHT22;64379;48.888;8.330;2022-11-20T07:57:03;7.40;77.90
75769;DHT22;64379;48.888;8.330;2022-11-20T07:59:29;7.40;77.60
75769;DHT22;64379;48.888;8.330;2022-11-20T08:01:55;7.40;77.80
75769;DHT22;64379;48.888;8.330;2022-11-20T08:04:20;7.40;78.00
75769;DHT22;64379;48.888;8.330;2022-11-20T08:06:48;7.20;79.50
75769;DHT22;64379;48.888;8.330;2022-11-20T08:09:14;7.20;79.60
75769;DHT22;64379;48.888;8.330;2022-11-20T08:11:40;7.20;79.80
75769;DHT22;64379;48.888;8.330;2022-11-20T08:14:24;7.20;79.80
75769;DHT22;64379;48.888;8.330;2022-11-20T08:16:50;7.10;80.30
75769;DHT22;64379;48.888;8.330;2022-11-20T08:19:17;7.10;80.70
75769;DHT22;64379;48.888;8.330;2022-11-20T08:21:43;7.10;80.20
75769;DHT22;64379;48.888;8.330;2022-11-20T08:24:10;7.20;80.40
75769;DHT22;64379;48.888;8.330;2022-11-20T08:26:37;7.20;80.10
75769;DHT22;64379;48.888;8.330;2022-11-20T08:29:03;7.20;80.30
75769;DHT22;64379;48.888;8.330;2022-11-20T08:31:29;7.20;80.10
75769;DHT22;64379;48.888;8.330;2022-11-20T08:33:56;7.20;80.10
75769;DHT22;64379;48.888;8.330;2022-11-20T08:36:23;7.20;79.90
75769;DHT22;64379;48.888;8.330;2022-11-20T08:38:54;7.30;80.20
75769;DHT22;64379;48.888;8.330;2022-11-20T08:41:20;7.50;79.30
75769;DHT22;64379;48.888;8.330;2022-11-20T08:46:19;7.30;79.20
75769;DHT22;64379;48.888;8.330;2022-11-20T08:48:45;7.30;79.50
75769;DHT22;64379;48.888;8.330;2022-11-20T08:51:11;7.40;79.30
75769;DHT22;64379;48.888;8.330;2022-11-20T08:53:37;7.40;78.90
75769;DHT22;64379;48.888;8.330;2022-11-20T08:56:03;7.30;79.40
75769;DHT22;64379;48.888;8.330;2022-11-20T08:58:29;7.40;79.10
75769;DHT22;64379;48.888;8.330;2022-11-20T09:00:55;7.40;79.30
75769;DHT22;64379;48.888;8.330;2022-11-20T09:03:20;7.50;78.70
75769;DHT22;64379;48.888;8.330;2022-11-20T09:05:46;7.50;78.80
75769;DHT22;64379;48.888;8.330;2022-11-20T09:08:11;7.50;78.70
75769;DHT22;64379;48.888;8.330;2022-11-20T09:10:37;7.50;79.10
75769;DHT22;64379;48.888;8.330;2022-11-20T09:13:05;7.40;80.00
75769;DHT22;64379;48.888;8.330;2022-11-20T09:15:31;7.20;81.50
75769;DHT22;64379;48.888;8.330;2022-11-20T09:17:58;7.20;81.50
75769;DHT22;64379;48.888;8.330;2022-11-20T09:20:25;7.10;82.10
75769;DHT22;64379;48.888;8.330;2022-11-20T09:22:51;7.00;82.60
75769;DHT22;64379;48.888;8.330;2022-11-20T09:25:17;7.00;82.50
75769;DHT22;64379;48.888;8.330;2022-11-20T09:27:43;7.00;82.60
75769;DHT22;64379;48.888;8.330;2022-11-20T09:30:12;7.00;82.80
75769;DHT22;64379;48.888;8.330;2022-11-20T09:32:41;7.10;83.10
75769;DHT22;64379;48.888;8.330;2022-11-20T09:35:09;7.10;82.90
75769;DHT22;64379;48.888;8.330;2022-11-20T09:37:35;7.10;83.20
75769;DHT22;64379;48.888;8.330;2022-11-20T09:40:01;7.20;83.40
75769;DHT22;64379;48.888;8.330;2022-11-20T09:54:04;7.20;82.80
75769;DHT22;64379;48.888;8.330;2022-11-20T09:56:21;7.20;82.90
75769;DHT22;64379;48.888;8.330;2022-11-20T09:58:50;7.20;82.70
75769;DHT22;64379;48.888;8.330;2022-11-20T10:01:23;7.20;83.00
75769;DHT22;64379;48.888;8.330;2022-11-20T10:06:43;7.40;82.40
75769;DHT22;64379;48.888;8.330;2022-11-20T10:25:21;7.50;82.30
75769;DHT22;64379;48.888;8.330;2022-11-20T10:27:59;7.50;81.80
75769;DHT22;64379;48.888;8.330;2022-11-20T10:30:28;7.60;81.30
75769;DHT22;64379;48.888;8.330;2022-11-20T10:35:44;7.80;80.40
75769;DHT22;64379;48.888;8.330;2022-11-20T10:38:24;7.80;80.50
75769;DHT22;64379;48.888;8.330;2022-11-20T10:40:54;7.90;79.50
75769;DHT22;64379;48.888;8.330;2022-11-20T10:43:42;8.00;79.80
75769;DHT22;64379;48.888;8.330;2022-11-20T10:46:18;8.10;79.30
75769;DHT22;64379;48.888;8.330;2022-11-20T10:48:46;8.20;77.90
75769;DHT22;64379;48.888;8.330;2022-11-20T10:53:55;8.60;77.20
75769;DHT22;64379;48.888;8.330;2022-11-20T11:01:56;8.80;76.30
75769;DHT22;64379;48.888;8.330;2022-11-20T11:04:42;9.50;74.60
75769;DHT22;64379;48.888;8.330;2022-11-20T11:07:20;9.70;73.00
75769;DHT22;64379;48.888;8.330;2022-11-20T11:30:42;9.70;71.00
75769;DHT22;64379;48.888;8.330;2022-11-20T11:33:25;10.00;70.00
75769;DHT22;64379;48.888;8.330;2022-11-20T11:36:22;9.60;71.80
75769;DHT22;64379;48.888;8.330;2022-11-20T11:39:05;10.20;71.00
75769;DHT22;64379;48.888;8.330;2022-11-20T11:41:35;10.20;69.30
75769;DHT22;64379;48.888;8.330;2022-11-20T11:44:19;10.20;70.20
75769;DHT22;64379;48.888;8.330;2022-11-20T11:47:05;10.20;69.90
75769;DHT22;64379;48.888;8.330;2022-11-20T11:49:34;9.90;70.30
75769;DHT22;64379;48.888;8.330;2022-11-20T11:52:18;10.10;70.40
75769;DHT22;64379;48.888;8.330;2022-11-20T12:00:19;10.10;68.40
75769;DHT22;64379;48.888;8.330;2022-11-20T12:05:23;10.00;68.10
75769;DHT22;64379;48.888;8.330;2022-11-20T12:08:53;10.20;67.40
75769;DHT22;64379;48.888;8.330;2022-11-20T12:16:37;9.20;70.60
75769;DHT22;64379;48.888;8.330;2022-11-20T12:19:11;9.40;70.60
75769;DHT22;64379;48.888;8.330;2022-11-20T12:21:49;9.50;69.00
75769;DHT22;64379;48.888;8.330;2022-11-20T12:24:42;9.30;68.90
75769;DHT22;64379;48.888;8.330;2022-11-20T12:46:37;9.20;67.70
75769;DHT22;64379;48.888;8.330;2022-11-20T12:49:36;9.20;66.50
75769;DHT22;64379;48.888;8.330;2022-11-20T12:55:04;9.20;65.00
75769;DHT22;64379;48.888;8.330;2022-11-20T12:58:03;9.20;64.10
75769;DHT22;64379;48.888;8.330;2022-11-20T13:05:51;8.90;63.20
75769;DHT22;64379;48.888;8.330;2022-11-20T13:08:28;9.00;62.10
75769;DHT22;64379;48.888;8.330;2022-11-20T13:10:57;9.00;62.30
75769;DHT22;64379;48.888;8.330;2022-11-20T13:13:39;9.20;61.30
75769;DHT22;64379;48.888;8.330;2022-11-20T13:16:17;9.10;61.50
75769;DHT22;64379;48.888;8.330;2022-11-20T13:18:44;9.50;61.70
75769;DHT22;64379;48.888;8.330;2022-11-20T13:24:07;9.80;60.10
75769;DHT22;64379;48.888;8.330;2022-11-20T13:26:33;9.90;59.70
75769;DHT22;64379;48.888;8.330;2022-11-20T13:29:09;9.90;59.30
75769;DHT22;64379;48.888;8.330;2022-11-20T13:31:40;10.00;58.30
75769;DHT22;64379;48.888;8.330;2022-11-20T13:34:14;10.10;57.70
75769;DHT22;64379;48.888;8.330;2022-11-20T13:36:52;10.30;57.30
75769;DHT22;64379;48.888;8.330;2022-11-20T13:39:35;10.40;57.20
75769;DHT22;64379;48.888;8.330;2022-11-20T13:42:26;10.50;56.20
75769;DHT22;64379;48.888;8.330;2022-11-20T13:45:01;10.30;55.30
75769;DHT22;64379;48.888;8.330;2022-11-20T13:47:28;10.20;56.20
75769;DHT22;64379;48.888;8.330;2022-11-20T13:49:57;10.50;55.80
75769;DHT22;64379;48.888;8.330;2022-11-20T13:55:07;10.20;56.10
75769;DHT22;64379;48.888;8.330;2022-11-20T14:00:26;10.00;57.70
75769;DHT22;64379;48.888;8.330;2022-11-20T14:05:49;9.80;57.10
75769;DHT22;64379;48.888;8.330;2022-11-20T14:08:24;9.80;57.10
75769;DHT22;64379;48.888;8.330;2022-11-20T14:10:50;9.70;56.50
75769;DHT22;64379;48.888;8.330;2022-11-20T14:13:19;9.60;56.10
75769;DHT22;64379;48.888;8.330;2022-11-20T14:15:44;9.40;55.90
75769;DHT22;64379;48.888;8.330;2022-11-20T14:18:20;9.40;55.80
75769;DHT22;64379;48.888;8.330;2022-11-20T14:20:47;9.30;55.80
75769;DHT22;64379;48.888;8.330;2022-11-20T14:23:22;9.20;56.10
75769;DHT22;64379;48.888;8.330;2022-11-20T14:25:48;9.20;56.50
75769;DHT22;64379;48.888;8.330;2022-11-20T14:28:25;9.20;56.60
75769;DHT22;64379;48.888;8.330;2022-11-20T14:30:52;9.20;56.70
75769;DHT22;64379;48.888;8.330;2022-11-20T14:33:18;9.20;56.50
75769;DHT22;64379;48.888;8.330;2022-11-20T14:35:49;9.20;57.00
75769;DHT22;64379;48.888;8.330;2022-11-20T14:38:21;9.10;57.50
75769;DHT22;64379;48.888;8.330;2022-11-20T14:40:49;9.00;57.50
75769;DHT22;64379;48.888;8.330;2022-11-20T14:43:27;9.00;57.50
75769;DHT22;64379;48.888;8.330;2022-11-20T14:46:02;9.00;57.80
75769;DHT22;64379;48.888;8.330;2022-11-20T14:48:38;8.90;57.40
75769;DHT22;64379;48.888;8.330;2022-11-20T14:51:04;8.90;57.80
75769;DHT22;64379;48.888;8.330;2022-11-20T14:53:29;8.90;58.00
75769;DHT22;64379;48.888;8.330;2022-11-20T14:56:00;8.80;58.30
75769;DHT22;64379;48.888;8.330;2022-11-20T14:58:32;8.70;58.50
75769;DHT22;64379;48.888;8.330;2022-11-20T15:01:04;8.70;59.10
75769;DHT22;64379;48.888;8.330;2022-11-20T15:03:37;8.70;59.20
75769;DHT22;64379;48.888;8.330;2022-11-20T15:06:05;8.60;58.90
75769;DHT22;64379;48.888;8.330;2022-11-20T15:08:34;8.60;59.40
75769;DHT22;64379;48.888;8.330;2022-11-20T15:11:00;8.60;58.90
75769;DHT22;64379;48.888;8.330;2022-11-20T15:13:37;8.60;59.30
75769;DHT22;64379;48.888;8.330;2022-11-20T15:16:11;8.60;58.60
75769;DHT22;64379;48.888;8.330;2022-11-20T15:18:40;8.50;58.70
75769;DHT22;64379;48.888;8.330;2022-11-20T15:21:18;8.50;59.00
75769;DHT22;64379;48.888;8.330;2022-11-20T15:23:44;8.40;59.00
75769;DHT22;64379;48.888;8.330;2022-11-20T15:26:11;8.50;59.00
75769;DHT22;64379;48.888;8.330;2022-11-20T15:28:42;8.50;59.00
75769;DHT22;64379;48.888;8.330;2022-11-20T15:31:15;8.60;59.00
75769;DHT22;64379;48.888;8.330;2022-11-20T15:33:43;8.60;58.60
75769;DHT22;64379;48.888;8.330;2022-11-20T15:36:09;8.50;58.60
75769;DHT22;64379;48.888;8.330;2022-11-20T15:38:35;8.60;58.90
75769;DHT22;64379;48.888;8.330;2022-11-20T15:41:01;8.60;58.50
75769;DHT22;64379;48.888;8.330;2022-11-20T15:43:27;8.60;58.60
75769;DHT22;64379;48.888;8.330;2022-11-20T15:45:56;8.60;58.80
75769;DHT22;64379;48.888;8.330;2022-11-20T15:48:27;8.50;59.10
75769;DHT22;64379;48.888;8.330;2022-11-20T15:53:40;8.40;60.00
75769;DHT22;64379;48.888;8.330;2022-11-20T15:56:11;8.40;59.90
75769;DHT22;64379;48.888;8.330;2022-11-20T15:58:37;8.40;60.30
75769;DHT22;64379;48.888;8.330;2022-11-20T16:01:03;8.40;60.30
75769;DHT22;64379;48.888;8.330;2022-11-20T16:03:31;8.40;60.10
75769;DHT22;64379;48.888;8.330;2022-11-20T16:06:03;8.40;60.30
75769;DHT22;64379;48.888;8.330;2022-11-20T16:08:29;8.40;60.30
75769;DHT22;64379;48.888;8.330;2022-11-20T16:10:54;8.40;60.30
75769;DHT22;64379;48.888;8.330;2022-11-20T16:13:20;8.40;60.40
75769;DHT22;64379;48.888;8.330;2022-11-20T16:16:07;8.30;60.70
75769;DHT22;64379;48.888;8.330;2022-11-20T16:18:45;8.30;60.90
75769;DHT22;64379;48.888;8.330;2022-11-20T16:21:11;8.30;60.70
75769;DHT22;64379;48.888;8.330;2022-11-20T16:23:38;8.40;60.70
75769;DHT22;64379;48.888;8.330;2022-11-20T16:26:14;8.40;60.90
75769;DHT22;64379;48.888;8.330;2022-11-20T16:28:40;8.30;60.90
75769;DHT22;64379;48.888;8.330;2022-11-20T16:31:14;8.30;60.90
75769;DHT22;64379;48.888;8.330;2022-11-20T16:33:40;8.30;60.90
75769;DHT22;64379;48.888;8.330;2022-11-20T16:36:13;8.30;61.20
75769;DHT22;64379;48.888;8.330;2022-11-20T16:38:39;8.30;61.50
75769;DHT22;64379;48.888;8.330;2022-11-20T16:41:06;8.30;61.20
75769;DHT22;64379;48.888;8.330;2022-11-20T16:43:44;8.20;61.60
75769;DHT22;64379;48.888;8.330;2022-11-20T16:46:10;8.20;62.00
75769;DHT22;64379;48.888;8.330;2022-11-20T16:48:36;8.20;62.10
75769;DHT22;64379;48.888;8.330;2022-11-20T16:51:01;8.20;62.30
75769;DHT22;64379;48.888;8.330;2022-11-20T16:53:27;8.20;62.30
75769;DHT22;64379;48.888;8.330;2022-11-20T16:55:52;8.20;62.40
75769;DHT22;64379;48.888;8.330;2022-11-20T16:58:18;8.20;62.30
75769;DHT22;64379;48.888;8.330;2022-11-20T17:00:44;8.20;62.50
75769;DHT22;64379;48.888;8.330;2022-11-20T17:03:10;8.30;62.60
75769;DHT22;64379;48.888;8.330;2022-11-20T17:05:35;8.30;62.90
75769;DHT22;64379;48.888;8.330;2022-11-20T17:08:01;8.20;63.00
75769;DHT22;64379;48.888;8.330;2022-11-20T17:10:27;8.20;63.20
75769;DHT22;64379;48.888;8.330;2022-11-20T17:12:53;8.20;63.50
75769;DHT22;64379;48.888;8.330;2022-11-20T17:15:19;8.20;64.70
75769;DHT22;64379;48.888;8.330;2022-11-20T17:17:44;8.10;64.90
75769;DHT22;64379;48.888;8.330;2022-11-20T17:20:10;8.10;66.40
75769;DHT22;64379;48.888;8.330;2022-11-20T17:22:38;8.00;66.30
75769;DHT22;64379;48.888;8.330;2022-11-20T17:25:06;8.00;66.20
75769;DHT22;64379;48.888;8.330;2022-11-20T17:27:32;8.00;66.50
75769;DHT22;64379;48.888;8.330;2022-11-20T17:29:58;8.00;66.10
75769;DHT22;64379;48.888;8.330;2022-11-20T17:32:23;8.00;66.80
75769;DHT22;64379;48.888;8.330;2022-11-20T17:34:49;8.00;66.20
75769;DHT22;64379;48.888;8.330;2022-11-20T17:37:14;8.00;65.90
75769;DHT22;64379;48.888;8.330;2022-11-20T17:39:42;8.00;65.90
75769;DHT22;64379;48.888;8.330;2022-11-20T17:42:09;8.00;65.70
75769;DHT22;64379;48.888;8.330;2022-11-20T17:44:54;8.10;65.50
75769;DHT22;64379;48.888;8.330;2022-11-20T17:47:19;8.10;65.20
75769;DHT22;64379;48.888;8.330;2022-11-20T17:49:45;8.10;65.30
75769;DHT22;64379;48.888;8.330;2022-11-20T17:52:11;8.00;64.80
75769;DHT22;64379;48.888;8.330;2022-11-20T17:54:36;8.00;65.00
75769;DHT22;64379;48.888;8.330;2022-11-20T17:57:04;8.00;66.10
75769;DHT22;64379;48.888;8.330;2022-11-20T17:59:51;8.00;65.00
75769;DHT22;64379;48.888;8.330;2022-11-20T18:02:17;7.80;66.80